Time;durP1;ratioP1;P1;durP2;ratioP2;P2;SDS_P1;SDS_P2;PMS_P1;PMS_P2;Temp;Humidity;BMP_temperature;BMP_pressure;BME280_temperature;BME280_humidity;BME280_pressure;Samples;Min_cycle;Max_cycle;Signal;HPM_P1;HPM_P2
2021/09/10 00:00:48;;;;;;;21.73;19.50;;;24.40;74.40;;;;;;5118499;28;20044;-63
2021/09/10 00:03:14;;;;;;;22.58;20.13;;;24.40;74.30;;;;;;5118471;28;20031;-63
2021/09/10 00:05:40;;;;;;;21.85;19.45;;;24.40;74.40;;;;;;5102662;28;20035;-63
2021/09/10 00:08:05;;;;;;;27.80;22.13;;;24.40;74.30;;;;;;5098180;28;20521;-63
2021/09/10 00:10:31;;;;;;;24.23;21.52;;;24.40;74.60;;;;;;5119035;28;20043;-62
2021/09/10 00:12:58;;;;;;;29.17;24.27;;;24.40;74.60;;;;;;5117050;28;20039;-63
2021/09/10 00:15:24;;;;;;;25.42;22.08;;;24.40;74.80;;;;;;5104586;28;20123;-63
2021/09/10 00:17:49;;;;;;;25.63;21.70;;;24.30;74.70;;;;;;5119275;28;20114;-63
2021/09/10 00:20:15;;;;;;;25.63;22.40;;;24.30;74.60;;;;;;5118578;28;20039;-63
2021/09/10 00:22:41;;;;;;;46.40;36.55;;;24.30;74.60;;;;;;5118480;28;20211;-63
2021/09/10 00:25:07;;;;;;;28.85;24.85;;;24.30;74.60;;;;;;5102282;28;20039;-63
2021/09/10 00:27:33;;;;;;;42.78;36.20;;;24.10;74.90;;;;;;5102635;28;20098;-63
2021/09/10 00:29:59;;;;;;;53.50;45.08;;;23.90;75.30;;;;;;5099375;28;20047;-62
2021/09/10 00:32:25;;;;;;;51.60;43.83;;;23.60;76.10;;;;;;5116940;28;20430;-62
2021/09/10 00:34:50;;;;;;;32.65;28.25;;;23.30;77.00;;;;;;5118854;28;20027;-62
2021/09/10 00:37:16;;;;;;;59.70;49.10;;;23.00;78.00;;;;;;5086323;28;20550;-62
2021/09/10 00:39:41;;;;;;;57.05;45.90;;;22.80;79.10;;;;;;5099790;28;20080;-62
2021/09/10 00:42:07;;;;;;;28.67;24.90;;;22.60;80.20;;;;;;5104137;28;20094;-62
2021/09/10 00:44:33;;;;;;;30.48;26.80;;;22.30;81.30;;;;;;5118629;28;20050;-63
2021/09/10 00:46:59;;;;;;;25.38;22.30;;;22.30;82.20;;;;;;5120092;28;20046;-62
2021/09/10 00:49:25;;;;;;;24.98;21.05;;;22.60;81.90;;;;;;5118193;28;20485;-62
2021/09/10 00:51:51;;;;;;;24.83;22.20;;;22.80;81.10;;;;;;5098747;27;20059;-62
2021/09/10 00:54:17;;;;;;;25.52;21.77;;;23.00;80.40;;;;;;5122497;27;20055;-63
2021/09/10 00:56:43;;;;;;;24.52;21.25;;;23.20;79.60;;;;;;5123178;27;20130;-62
2021/09/10 00:59:08;;;;;;;35.63;29.50;;;23.40;79.10;;;;;;5122117;27;20031;-62
2021/09/10 01:01:35;;;;;;;39.10;34.58;;;23.40;78.60;;;;;;5122133;27;20077;-62
2021/09/10 01:04:02;;;;;;;24.75;20.67;;;23.40;78.50;;;;;;5102390;27;20035;-62
2021/09/10 01:06:29;;;;;;;24.27;21.60;;;23.30;78.60;;;;;;5106899;27;20129;-62
2021/09/10 01:08:57;;;;;;;21.35;18.52;;;23.40;78.80;;;;;;5120916;27;20031;-62
2021/09/10 01:11:24;;;;;;;24.77;22.15;;;23.50;78.50;;;;;;5120174;27;20553;-62
2021/09/10 01:13:50;;;;;;;25.33;22.08;;;23.50;78.10;;;;;;5121759;27;20040;-62
2021/09/10 01:16:17;;;;;;;33.75;25.45;;;23.40;78.40;;;;;;5122359;27;22200;-62
2021/09/10 01:18:43;;;;;;;24.98;20.52;;;23.20;78.50;;;;;;5121008;27;20058;-62
2021/09/10 01:21:09;;;;;;;25.63;22.33;;;23.10;79.00;;;;;;5104983;27;20471;-62
2021/09/10 01:23:35;;;;;;;25.35;20.13;;;23.00;79.30;;;;;;5121959;27;20030;-62
2021/09/10 01:26:00;;;;;;;21.70;19.00;;;22.90;79.60;;;;;;5122945;27;20047;-62
2021/09/10 01:28:27;;;;;;;20.90;17.10;;;22.90;79.90;;;;;;5107087;27;20513;-62
2021/09/10 01:30:53;;;;;;;21.20;17.77;;;23.00;79.80;;;;;;5120530;27;20039;-61
2021/09/10 01:33:19;;;;;;;25.17;22.40;;;23.10;79.40;;;;;;5121700;27;20058;-62
2021/09/10 01:35:45;;;;;;;34.65;30.88;;;23.20;79.10;;;;;;5121640;27;20031;-62
2021/09/10 01:38:11;;;;;;;22.92;20.40;;;23.20;79.00;;;;;;5121638;27;20035;-62
2021/09/10 01:40:37;;;;;;;35.13;28.90;;;23.10;79.10;;;;;;5121858;27;20126;-62
2021/09/10 01:43:04;;;;;;;38.20;32.10;;;22.90;79.50;;;;;;5120902;27;20035;-62
2021/09/10 01:45:30;;;;;;;38.55;33.95;;;22.60;80.30;;;;;;5122048;27;20521;-62
2021/09/10 01:47:56;;;;;;;36.95;32.33;;;22.30;81.30;;;;;;5106225;27;20042;-62
2021/09/10 01:50:24;;;;;;;44.60;35.42;;;22.10;82.20;;;;;;5104520;27;20055;-62
2021/09/10 01:52:54;;;;;;;39.53;31.30;;;22.00;83.10;;;;;;5119065;27;20105;-62
2021/09/10 01:55:20;;;;;;;42.50;35.10;;;21.80;83.70;;;;;;5121498;27;20151;-63
2021/09/10 01:57:48;;;;;;;44.08;35.95;;;21.60;84.70;;;;;;5121914;27;20751;-63
2021/09/10 02:00:15;;;;;;;24.10;20.00;;;21.30;86.00;;;;;;5121759;27;20031;-62
2021/09/10 02:02:41;;;;;;;40.97;32.92;;;21.20;87.20;;;;;;5120730;27;20047;-63
2021/09/10 02:05:08;;;;;;;39.40;32.83;;;21.20;87.40;;;;;;5120086;27;20474;-63
2021/09/10 02:07:34;;;;;;;37.25;32.60;;;21.10;87.70;;;;;;5104784;27;20039;-62
2021/09/10 02:10:00;;;;;;;42.65;32.30;;;21.00;88.30;;;;;;5121391;27;20054;-62
2021/09/10 02:12:25;;;;;;;39.30;33.33;;;20.80;88.80;;;;;;5090451;27;20027;-62
2021/09/10 02:14:51;;;;;;;41.97;34.28;;;20.70;89.70;;;;;;5099603;27;20123;-62
2021/09/10 02:17:17;;;;;;;38.22;34.13;;;20.50;89.60;;;;;;5120894;27;20035;-62
2021/09/10 02:19:42;;;;;;;39.95;33.45;;;20.40;89.90;;;;;;5104261;27;20031;-62
2021/09/10 02:22:08;;;;;;;41.95;34.47;;;20.20;90.00;;;;;;5119683;27;20031;-62
2021/09/10 02:24:34;;;;;;;39.30;29.20;;;20.10;90.20;;;;;;5101033;27;20054;-62
2021/09/10 02:27:00;;;;;;;37.00;31.42;;;20.10;90.50;;;;;;5121807;27;20047;-62
2021/09/10 02:29:26;;;;;;;35.15;31.13;;;20.10;90.50;;;;;;5119526;27;20057;-62
2021/09/10 02:31:52;;;;;;;39.38;31.58;;;20.00;90.50;;;;;;5119202;27;20542;-62
2021/09/10 02:34:17;;;;;;;43.65;31.55;;;20.00;90.60;;;;;;5104996;27;20047;-62
2021/09/10 02:36:43;;;;;;;30.00;24.98;;;20.00;90.70;;;;;;5121014;27;20069;-62
2021/09/10 02:39:11;;;;;;;32.13;28.10;;;19.90;90.90;;;;;;5100478;28;20050;-61
2021/09/10 02:41:37;;;;;;;40.38;31.85;;;20.00;90.90;;;;;;5120039;27;20042;-61
2021/09/10 02:44:04;;;;;;;33.78;29.33;;;20.10;90.90;;;;;;5106431;27;20051;-61
2021/09/10 02:46:31;;;;;;;28.98;21.98;;;20.10;90.90;;;;;;5120334;27;20578;-62
2021/09/10 02:48:57;;;;;;;29.15;25.20;;;20.30;90.80;;;;;;5118924;27;20062;-62
2021/09/10 02:51:23;;;;;;;38.60;30.88;;;20.40;90.70;;;;;;5118698;27;20118;-61
2021/09/10 02:53:48;;;;;;;35.15;29.35;;;20.50;90.50;;;;;;5120527;27;20058;-62
2021/09/10 02:56:14;;;;;;;29.10;24.38;;;20.40;90.50;;;;;;5103945;27;20031;-62
2021/09/10 02:58:40;;;;;;;31.20;26.98;;;20.40;90.60;;;;;;5119777;27;20039;-61
2021/09/10 03:01:05;;;;;;;31.27;22.83;;;20.50;90.60;;;;;;5099223;27;20063;-61
2021/09/10 03:03:31;;;;;;;21.45;18.60;;;20.70;90.40;;;;;;5119662;27;20039;-62
2021/09/10 03:05:57;;;;;;;33.22;26.55;;;20.80;90.10;;;;;;5120568;27;20039;-62
2021/09/10 03:08:23;;;;;;;33.50;25.10;;;21.00;89.90;;;;;;5083796;27;20134;-62
2021/09/10 03:10:50;;;;;;;33.00;25.67;;;21.00;89.60;;;;;;5103084;27;20040;-62
2021/09/10 03:13:16;;;;;;;24.45;20.90;;;21.10;89.30;;;;;;5118607;27;20046;-62
2021/09/10 03:15:42;;;;;;;17.35;14.70;;;21.00;89.30;;;;;;5119643;27;20051;-62
2021/09/10 03:18:07;;;;;;;17.50;14.00;;;21.10;89.60;;;;;;5119413;27;20058;-62
2021/09/10 03:20:33;;;;;;;17.27;13.40;;;21.20;89.40;;;;;;5086822;27;20039;-62
2021/09/10 03:22:59;;;;;;;14.88;13.32;;;21.50;88.80;;;;;;5118941;27;20042;-62
2021/09/10 03:25:25;;;;;;;15.30;13.25;;;21.80;87.80;;;;;;5103249;27;20049;-62
2021/09/10 03:27:50;;;;;;;16.40;13.20;;;22.00;86.80;;;;;;5103405;27;20049;-62
2021/09/10 03:30:16;;;;;;;17.95;13.73;;;22.20;86.10;;;;;;5118984;27;20450;-62
2021/09/10 03:32:42;;;;;;;27.02;21.55;;;22.40;85.60;;;;;;5117511;27;20035;-63
2021/09/10 03:35:09;;;;;;;26.13;21.65;;;22.40;84.80;;;;;;5120160;27;20375;-62
2021/09/10 03:37:35;;;;;;;16.02;14.00;;;22.30;84.60;;;;;;5080090;28;20104;-63
2021/09/10 03:40:01;;;;;;;21.88;17.75;;;22.10;85.30;;;;;;5119912;27;20124;-62
2021/09/10 03:42:27;;;;;;;21.75;17.13;;;22.00;85.50;;;;;;5118817;27;20036;-63
2021/09/10 03:44:53;;;;;;;17.73;12.45;;;21.90;85.80;;;;;;5119149;27;20505;-63
2021/09/10 03:47:18;;;;;;;20.63;16.52;;;21.90;86.10;;;;;;5119886;27;20551;-63
2021/09/10 03:49:44;;;;;;;13.73;11.65;;;22.00;86.30;;;;;;5118170;28;20070;-63
2021/09/10 03:52:10;;;;;;;14.85;11.30;;;22.20;85.60;;;;;;5116429;28;20051;-63
2021/09/10 03:54:36;;;;;;;15.50;11.48;;;22.30;85.20;;;;;;5119133;28;20500;-63
2021/09/10 03:57:02;;;;;;;14.60;11.07;;;22.40;84.80;;;;;;5103617;28;20115;-63
2021/09/10 03:59:27;;;;;;;14.15;11.60;;;22.50;84.20;;;;;;5119519;28;20080;-63
2021/09/10 04:01:53;;;;;;;18.65;16.38;;;22.60;83.70;;;;;;5118137;28;20039;-62
2021/09/10 04:04:19;;;;;;;12.15;10.30;;;22.60;83.60;;;;;;5118025;28;20035;-62
2021/09/10 04:06:45;;;;;;;12.20;9.98;;;22.50;83.60;;;;;;5119814;28;20054;-62
2021/09/10 04:09:10;;;;;;;24.88;18.35;;;22.40;83.80;;;;;;5102464;28;20054;-62
2021/09/10 04:11:37;;;;;;;27.30;21.73;;;22.40;84.10;;;;;;5116883;28;20035;-62
2021/09/10 04:14:03;;;;;;;28.02;22.33;;;22.20;84.60;;;;;;5119374;28;20132;-65
2021/09/10 04:16:29;;;;;;;12.57;11.27;;;22.00;85.20;;;;;;5101711;28;20122;-63
2021/09/10 04:18:54;;;;;;;14.48;12.30;;;21.90;85.70;;;;;;5119021;28;20047;-63
2021/09/10 04:21:20;;;;;;;13.93;11.18;;;22.00;85.90;;;;;;5119242;28;20058;-64
2021/09/10 04:23:46;;;;;;;27.75;22.75;;;22.10;85.40;;;;;;5117979;28;20043;-66
2021/09/10 04:26:11;;;;;;;15.40;13.52;;;22.10;85.20;;;;;;5103760;28;20125;-63
2021/09/10 04:28:37;;;;;;;17.05;12.57;;;21.90;85.60;;;;;;5121390;27;20058;-63
2021/09/10 04:31:03;;;;;;;23.00;18.73;;;21.70;86.20;;;;;;5090576;27;20126;-63
2021/09/10 04:33:29;;;;;;;13.05;11.65;;;21.80;86.40;;;;;;5109757;27;20052;-63
2021/09/10 04:35:54;;;;;;;13.48;11.63;;;21.90;86.60;;;;;;5122915;27;20039;-63
2021/09/10 04:38:20;;;;;;;13.90;11.30;;;22.10;86.20;;;;;;5122773;27;20476;-62
2021/09/10 04:40:46;;;;;;;12.25;10.35;;;22.30;84.90;;;;;;5107543;27;20877;-61
2021/09/10 04:43:11;;;;;;;21.30;15.85;;;22.50;84.20;;;;;;5120490;27;20882;-59
2021/09/10 04:45:37;;;;;;;15.82;12.30;;;22.60;84.10;;;;;;5123713;27;20383;-59
2021/09/10 04:48:03;;;;;;;15.18;12.52;;;22.50;83.60;;;;;;5120709;27;20075;-59
2021/09/10 04:50:29;;;;;;;18.25;14.48;;;22.50;83.60;;;;;;5120790;27;20050;-58
2021/09/10 04:52:55;;;;;;;13.10;11.07;;;22.40;83.70;;;;;;5122328;27;20050;-59
2021/09/10 04:55:20;;;;;;;19.55;15.57;;;22.40;83.80;;;;;;5122771;27;20039;-59
2021/09/10 04:57:47;;;;;;;28.40;23.38;;;22.40;84.00;;;;;;5122439;27;20031;-58
2021/09/10 05:00:13;;;;;;;30.58;26.65;;;22.10;84.20;;;;;;5122067;27;20035;-58
2021/09/10 05:02:41;;;;;;;30.88;25.23;;;21.70;85.20;;;;;;5122153;27;20168;-58
2021/09/10 05:05:07;;;;;;;31.23;24.40;;;21.40;86.40;;;;;;5122965;27;20425;-57
2021/09/10 05:07:33;;;;;;;29.80;26.27;;;21.10;87.50;;;;;;5084685;27;20039;-58
2021/09/10 05:09:58;;;;;;;27.63;23.13;;;20.90;88.50;;;;;;5122339;27;20073;-58
2021/09/10 05:12:24;;;;;;;32.03;25.25;;;20.60;89.30;;;;;;5120251;27;20023;-58
2021/09/10 05:14:52;;;;;;;21.40;18.08;;;20.50;90.00;;;;;;5122404;27;20035;-58
2021/09/10 05:17:19;;;;;;;27.77;22.80;;;20.50;90.30;;;;;;5122931;27;20132;-58
2021/09/10 05:19:45;;;;;;;27.15;23.58;;;20.50;90.40;;;;;;5123005;27;20039;-58
2021/09/10 05:22:10;;;;;;;17.30;13.88;;;20.50;90.30;;;;;;5122160;27;20046;-58
2021/09/10 05:24:36;;;;;;;16.45;13.25;;;20.60;90.30;;;;;;5122131;27;20092;-58
2021/09/10 05:27:02;;;;;;;18.70;16.27;;;20.80;90.20;;;;;;5121940;27;20035;-58
2021/09/10 05:29:27;;;;;;;15.68;12.95;;;21.00;89.80;;;;;;5121498;27;20035;-58
2021/09/10 05:31:53;;;;;;;17.00;11.60;;;21.10;89.40;;;;;;5104030;27;20044;-58
2021/09/10 05:34:19;;;;;;;13.38;10.88;;;21.20;89.10;;;;;;5122900;27;20045;-59
2021/09/10 05:36:45;;;;;;;18.98;14.50;;;21.40;89.30;;;;;;5102174;27;20491;-59
2021/09/10 05:39:10;;;;;;;28.60;22.92;;;21.70;88.60;;;;;;5121402;27;20035;-60
2021/09/10 05:41:36;;;;;;;18.17;13.70;;;21.80;87.60;;;;;;5103092;27;20124;-63
2021/09/10 05:44:02;;;;;;;28.33;18.60;;;21.80;87.30;;;;;;5100702;27;20043;-63
2021/09/10 05:46:28;;;;;;;23.92;18.30;;;21.90;87.10;;;;;;5083411;27;20037;-63
2021/09/10 05:48:54;;;;;;;29.88;23.65;;;22.00;86.50;;;;;;5089180;27;20039;-63
2021/09/10 05:51:20;;;;;;;24.13;19.35;;;22.10;86.20;;;;;;5104074;27;20068;-64
2021/09/10 05:53:46;;;;;;;30.83;23.70;;;22.10;86.10;;;;;;5100701;27;20050;-64
2021/09/10 05:56:12;;;;;;;34.58;24.67;;;21.90;86.10;;;;;;5102520;27;20364;-62
2021/09/10 05:58:38;;;;;;;29.35;23.98;;;21.80;86.50;;;;;;5089431;27;20039;-63
2021/09/10 06:01:03;;;;;;;31.23;25.15;;;21.60;87.00;;;;;;5104222;27;20096;-63
2021/09/10 06:03:29;;;;;;;33.55;25.95;;;21.40;87.70;;;;;;5103188;27;20047;-63
2021/09/10 06:05:55;;;;;;;34.95;25.80;;;21.10;88.50;;;;;;5105073;27;20039;-63
2021/09/10 06:08:21;;;;;;;35.10;26.85;;;20.90;89.50;;;;;;5121183;27;20043;-63
2021/09/10 06:10:47;;;;;;;31.80;24.40;;;20.60;90.10;;;;;;5120442;27;20059;-62
2021/09/10 06:13:13;;;;;;;31.25;26.02;;;20.50;90.50;;;;;;5077357;27;20047;-62
2021/09/10 06:15:39;;;;;;;28.63;24.60;;;20.30;90.80;;;;;;5104923;27;20039;-66
2021/09/10 06:18:05;;;;;;;24.08;20.33;;;20.20;91.10;;;;;;5087111;27;20043;-65
2021/09/10 06:20:31;;;;;;;35.60;26.42;;;20.30;91.20;;;;;;5085100;27;20506;-62
2021/09/10 06:22:57;;;;;;;32.70;26.15;;;20.50;91.00;;;;;;5120751;27;20039;-62
2021/09/10 06:25:24;;;;;;;39.53;28.00;;;20.40;90.90;;;;;;5100827;27;20165;-63
2021/09/10 06:27:51;;;;;;;32.28;27.85;;;20.30;91.10;;;;;;5101225;27;20056;-62
2021/09/10 06:30:18;;;;;;;27.20;21.45;;;20.30;91.30;;;;;;5087886;27;20375;-62
2021/09/10 06:32:44;;;;;;;27.45;22.65;;;20.20;91.40;;;;;;5103675;27;20035;-62
2021/09/10 06:35:10;;;;;;;33.53;26.10;;;20.50;91.30;;;;;;5089269;27;20147;-61
2021/09/10 06:37:35;;;;;;;29.90;25.77;;;20.70;91.00;;;;;;5118871;27;20047;-62
2021/09/10 06:40:03;;;;;;;28.73;23.80;;;20.60;91.00;;;;;;5088486;27;20032;-62
2021/09/10 06:42:28;;;;;;;31.02;24.83;;;20.50;91.20;;;;;;5120540;27;20584;-62
2021/09/10 06:44:54;;;;;;;35.58;25.13;;;20.30;91.40;;;;;;5102226;27;20134;-61
2021/09/10 06:47:21;;;;;;;26.48;22.52;;;20.10;91.60;;;;;;5104391;27;20059;-63
2021/09/10 06:49:47;;;;;;;31.30;24.92;;;20.00;91.80;;;;;;5101544;27;20125;-62
2021/09/10 06:52:13;;;;;;;29.63;23.45;;;20.00;92.00;;;;;;5085748;27;20055;-60
2021/09/10 06:54:39;;;;;;;27.60;21.15;;;20.00;92.10;;;;;;5119295;27;20167;-60
2021/09/10 06:57:05;;;;;;;28.90;23.50;;;20.10;92.10;;;;;;5083196;27;20146;-60
2021/09/10 06:59:31;;;;;;;30.35;24.42;;;20.20;91.90;;;;;;5119526;27;20035;-59
2021/09/10 07:01:57;;;;;;;29.70;24.92;;;20.20;92.00;;;;;;5119004;27;20118;-60
2021/09/10 07:04:23;;;;;;;27.55;22.80;;;20.20;92.10;;;;;;5117613;27;20047;-60
2021/09/10 07:06:48;;;;;;;27.75;23.55;;;20.10;92.20;;;;;;5118615;27;20039;-59
2021/09/10 07:09:14;;;;;;;28.42;21.70;;;20.10;92.20;;;;;;5100815;27;20927;-61
2021/09/10 07:11:40;;;;;;;23.45;20.95;;;20.00;92.30;;;;;;5119963;27;20084;-70
2021/09/10 07:14:06;;;;;;;30.55;21.80;;;20.10;92.50;;;;;;5103018;27;20837;-70
2021/09/10 07:16:32;;;;;;;24.45;20.58;;;20.10;92.50;;;;;;5116996;27;20054;-64
2021/09/10 07:18:58;;;;;;;32.28;27.00;;;20.20;92.50;;;;;;5120609;27;20035;-66
2021/09/10 07:21:24;;;;;;;29.08;22.10;;;20.20;92.50;;;;;;5100537;28;20487;-66
2021/09/10 07:23:50;;;;;;;32.00;24.40;;;20.10;92.50;;;;;;5121025;27;20046;-66
2021/09/10 07:26:16;;;;;;;32.00;25.35;;;20.10;92.70;;;;;;5118069;27;20043;-67
2021/09/10 07:28:42;;;;;;;27.45;22.05;;;20.00;92.80;;;;;;5121529;27;20065;-67
2021/09/10 07:31:09;;;;;;;27.67;23.77;;;20.00;92.90;;;;;;5102228;28;20031;-67
2021/09/10 07:33:40;;;;;;;29.42;22.50;;;20.00;93.00;;;;;;5117571;27;20039;-68
2021/09/10 07:36:06;;;;;;;33.20;22.42;;;20.00;93.10;;;;;;5103162;28;20097;-66
2021/09/10 07:38:33;;;;;;;29.60;22.55;;;20.00;93.10;;;;;;5119251;27;20038;-69
2021/09/10 07:40:59;;;;;;;26.95;22.60;;;20.00;93.20;;;;;;5104426;27;20062;-65
2021/09/10 07:43:25;;;;;;;26.75;22.63;;;20.10;93.20;;;;;;5086482;28;20126;-65
2021/09/10 07:45:51;;;;;;;28.80;23.25;;;20.10;93.20;;;;;;5104613;28;20126;-67
2021/09/10 07:48:17;;;;;;;35.72;24.90;;;20.20;93.20;;;;;;5101017;28;20054;-67
2021/09/10 07:50:43;;;;;;;26.48;22.98;;;20.20;93.30;;;;;;5103388;28;20050;-67
2021/09/10 07:53:08;;;;;;;28.20;24.30;;;20.30;93.30;;;;;;5105907;28;20054;-64
2021/09/10 07:55:34;;;;;;;28.13;21.90;;;20.40;93.30;;;;;;5100583;28;20074;-64
2021/09/10 07:58:00;;;;;;;25.60;22.45;;;20.50;93.20;;;;;;5105081;28;20035;-64
2021/09/10 08:00:26;;;;;;;26.13;21.58;;;20.50;93.30;;;;;;5101721;27;20027;-64
2021/09/10 08:02:52;;;;;;;23.58;20.75;;;20.50;93.00;;;;;;5121413;27;20433;-64
2021/09/10 08:05:18;;;;;;;24.13;20.70;;;20.50;92.90;;;;;;5104184;27;20035;-64
2021/09/10 08:07:44;;;;;;;22.60;20.15;;;20.60;92.80;;;;;;5120785;27;20035;-64
2021/09/10 08:10:14;;;;;;;23.40;20.77;;;20.60;92.70;;;;;;5084384;27;20044;-62
2021/09/10 08:12:44;;;;;;;21.65;19.45;;;20.60;92.80;;;;;;5121119;27;20040;-61
2021/09/10 08:15:12;;;;;;;23.35;19.77;;;20.70;92.70;;;;;;5122901;27;20071;-60
2021/09/10 08:17:38;;;;;;;23.45;19.45;;;20.70;92.60;;;;;;5103674;27;20412;-60
2021/09/10 08:20:05;;;;;;;21.45;18.50;;;20.70;92.60;;;;;;5120936;27;20036;-59
2021/09/10 08:22:31;;;;;;;21.15;18.85;;;20.80;92.50;;;;;;5105850;27;20039;-60
2021/09/10 08:24:57;;;;;;;22.27;19.67;;;20.80;92.50;;;;;;5088918;27;20039;-60
2021/09/10 08:27:24;;;;;;;24.23;21.02;;;20.90;92.40;;;;;;5105552;27;20379;-59
2021/09/10 08:29:50;;;;;;;30.33;24.98;;;21.00;92.50;;;;;;5121355;27;20122;-59
2021/09/10 08:32:16;;;;;;;30.60;24.95;;;21.10;92.60;;;;;;5121827;27;20115;-58
2021/09/10 08:34:42;;;;;;;30.15;24.90;;;21.20;92.50;;;;;;5107963;27;20061;-58
2021/09/10 08:37:07;;;;;;;30.35;24.92;;;21.30;92.50;;;;;;5122451;27;20032;-58
2021/09/10 08:39:33;;;;;;;30.20;26.15;;;21.40;92.40;;;;;;5123190;27;20027;-58
2021/09/10 08:41:59;;;;;;;32.47;26.13;;;21.50;92.30;;;;;;5122340;27;20041;-59
2021/09/10 08:44:27;;;;;;;30.83;26.40;;;21.70;92.20;;;;;;5121510;27;20130;-58
2021/09/10 08:46:53;;;;;;;31.65;26.88;;;21.80;92.10;;;;;;5121084;27;20036;-59
2021/09/10 08:49:19;;;;;;;30.48;25.77;;;21.90;92.00;;;;;;5123819;27;20044;-62
2021/09/10 08:51:45;;;;;;;31.35;26.23;;;22.00;91.80;;;;;;5123198;27;20063;-61
2021/09/10 08:54:12;;;;;;;31.08;26.52;;;22.10;91.70;;;;;;5122886;27;20031;-62
2021/09/10 08:56:38;;;;;;;34.60;26.00;;;22.00;91.60;;;;;;5122349;27;20056;-62
2021/09/10 08:59:11;;;;;;;28.25;25.23;;;21.90;91.80;;;;;;5121549;27;20067;-62
2021/09/10 09:01:49;;;;;;;;;;;21.80;91.90;;;;;;5121904;27;20036;-62
2021/09/10 09:04:16;;;;;;;29.92;25.15;;;21.70;91.80;;;;;;5121740;27;19919;-62
2021/09/10 09:06:42;;;;;;;33.15;26.15;;;21.70;92.10;;;;;;5123435;27;20058;-63
2021/09/10 09:09:09;;;;;;;32.55;27.75;;;21.70;91.90;;;;;;5121547;27;20159;-67
2021/09/10 09:11:34;;;;;;;36.83;28.08;;;21.70;92.00;;;;;;5102979;27;20532;-73
2021/09/10 09:14:04;;;;;;;35.97;30.05;;;21.70;92.20;;;;;;5091052;27;20048;-73
2021/09/10 09:16:30;;;;;;;38.70;31.92;;;21.80;92.20;;;;;;5092612;27;20092;-75
2021/09/10 09:19:03;;;;;;;39.25;29.52;;;21.80;92.20;;;;;;5107764;27;20089;-74
2021/09/10 09:21:31;;;;;;;33.60;28.40;;;21.90;92.10;;;;;;5105417;27;20042;-75
2021/09/10 09:24:21;;;;;;;34.65;28.50;;;21.90;91.90;;;;;;5102717;27;20051;-75
2021/09/10 09:26:50;;;;;;;35.58;29.73;;;21.90;91.70;;;;;;5102057;27;20078;-73
2021/09/10 09:29:19;;;;;;;34.60;28.83;;;22.00;91.90;;;;;;5105801;27;20043;-73
2021/09/10 09:32:04;;;;;;;34.13;27.02;;;22.10;91.70;;;;;;5103793;27;20782;-73
2021/09/10 09:34:49;;;;;;;32.58;27.73;;;22.20;91.50;;;;;;5104014;27;20051;-74
2021/09/10 09:37:17;;;;;;;32.53;28.77;;;22.20;91.50;;;;;;5107290;27;20364;-74
2021/09/10 09:39:51;;;;;;;32.35;27.83;;;22.10;91.70;;;;;;5106727;27;20070;-73
2021/09/10 09:42:24;;;;;;;37.22;28.02;;;22.20;91.90;;;;;;5107264;27;20122;-72
2021/09/10 09:45:09;;;;;;;;;;;22.10;91.90;;;;;;5105625;27;20039;-72
2021/09/10 09:47:36;;;;;;;34.15;26.80;;;22.00;91.70;;;;;;5104322;27;19923;-74
2021/09/10 09:50:11;;;;;;;35.17;28.02;;;21.90;92.20;;;;;;5101780;27;20070;-74
2021/09/10 09:52:37;;;;;;;34.33;29.17;;;22.00;92.20;;;;;;5103194;27;20074;-74
2021/09/10 09:55:06;;;;;;;35.47;28.63;;;22.00;92.30;;;;;;5086469;27;20035;-75
2021/09/10 09:57:33;;;;;;;37.63;29.83;;;21.90;92.30;;;;;;5104423;27;20051;-74
2021/09/10 10:00:03;;;;;;;38.83;30.73;;;21.80;92.50;;;;;;5118076;27;20403;-74
2021/09/10 10:02:29;;;;;;;38.13;30.00;;;21.90;92.90;;;;;;5098741;27;20031;-75
2021/09/10 10:04:59;;;;;;;37.70;30.05;;;21.90;92.60;;;;;;5103532;27;20043;-75
2021/09/10 10:07:35;;;;;;;43.08;31.75;;;21.90;92.40;;;;;;5103140;27;20057;-70
2021/09/10 10:10:02;;;;;;;41.92;33.58;;;21.80;92.70;;;;;;5105267;27;20043;-72
2021/09/10 10:12:29;;;;;;;44.10;32.40;;;21.60;92.90;;;;;;5106178;27;20031;-68
2021/09/10 10:15:18;;;;;;;44.97;32.13;;;21.50;93.10;;;;;;5106167;27;20051;-68
2021/09/10 10:17:44;;;;;;;44.42;33.42;;;21.50;93.20;;;;;;5098547;27;22721;-69
2021/09/10 10:20:14;;;;;;;40.83;32.28;;;21.40;93.50;;;;;;5085964;27;20043;-70
2021/09/10 10:22:41;;;;;;;40.22;32.45;;;21.50;93.50;;;;;;5104848;27;20498;-69
2021/09/10 10:25:08;;;;;;;40.92;31.73;;;21.50;93.50;;;;;;5099517;27;20444;-70
2021/09/10 10:27:40;;;;;;;42.03;32.15;;;21.60;93.50;;;;;;5114918;27;20077;-70
2021/09/10 10:30:15;;;;;;;41.30;30.42;;;21.70;93.40;;;;;;5104615;27;20095;-70
2021/09/10 10:32:42;;;;;;;37.60;30.38;;;21.70;93.40;;;;;;5101337;27;20091;-69
2021/09/10 10:35:29;;;;;;;41.78;31.45;;;21.70;93.30;;;;;;5082417;27;20048;-67
2021/09/10 10:38:10;;;;;;;45.90;32.33;;;21.80;93.20;;;;;;5103471;27;20126;-65
2021/09/10 10:40:50;;;;;;;43.30;33.15;;;21.80;93.20;;;;;;5098372;27;20031;-72
2021/09/10 10:43:18;;;;;;;37.88;31.33;;;21.90;93.10;;;;;;5102821;27;20516;-70
2021/09/10 10:45:47;;;;;;;39.67;30.95;;;21.90;93.10;;;;;;5102590;27;22297;-72
2021/09/10 10:48:34;;;;;;;42.78;31.02;;;22.00;93.10;;;;;;5101839;27;20092;-73
2021/09/10 10:51:04;;;;;;;42.45;31.88;;;22.10;92.90;;;;;;5094810;28;20084;-74
2021/09/10 10:53:45;;;;;;;41.53;30.60;;;22.10;92.90;;;;;;5076182;28;20048;-72
2021/09/10 10:56:28;;;;;;;40.25;32.17;;;22.10;92.80;;;;;;5078437;28;20119;-73
2021/09/10 10:59:16;;;;;;;37.60;30.75;;;22.20;92.80;;;;;;5075282;28;20082;-71
2021/09/10 11:02:21;;;;;;;39.50;32.50;;;22.20;92.70;;;;;;5079239;28;20044;-71
2021/09/10 11:05:06;;;;;;;39.42;31.25;;;22.30;92.60;;;;;;5063533;28;20131;-72
2021/09/10 11:07:32;;;;;;;38.47;30.00;;;22.30;92.80;;;;;;5075576;28;20062;-70
2021/09/10 11:10:18;;;;;;;34.30;28.35;;;22.30;92.90;;;;;;5076662;28;20052;-72
2021/09/10 11:12:53;;;;;;;35.25;29.45;;;22.40;92.60;;;;;;5077928;28;20121;-71
2021/09/10 11:15:20;;;;;;;37.85;30.60;;;22.50;92.50;;;;;;5079634;28;20872;-72
2021/09/10 11:17:59;;;;;;;33.20;28.30;;;22.50;92.30;;;;;;5079018;28;20040;-72
2021/09/10 11:20:34;;;;;;;33.55;29.98;;;22.60;92.00;;;;;;5079094;28;20032;-72
2021/09/10 11:23:00;;;;;;;33.85;27.92;;;22.70;91.70;;;;;;5076322;28;20042;-72
2021/09/10 11:25:26;;;;;;;33.20;26.83;;;22.80;91.60;;;;;;5078690;28;20366;-72
2021/09/10 11:27:52;;;;;;;36.53;27.67;;;22.90;91.50;;;;;;5078309;28;20045;-71
2021/09/10 11:30:18;;;;;;;35.67;25.88;;;23.10;91.10;;;;;;5061904;28;20119;-63
2021/09/10 11:32:44;;;;;;;32.33;26.52;;;23.30;90.80;;;;;;5059898;28;20028;-64
2021/09/10 11:35:21;;;;;;;32.85;27.00;;;23.40;90.60;;;;;;5078937;28;20051;-64
2021/09/10 11:38:09;;;;;;;33.05;27.75;;;23.40;90.40;;;;;;5062377;28;20044;-64
2021/09/10 11:40:40;;;;;;;37.78;29.90;;;23.50;90.40;;;;;;5077642;28;20035;-63
2021/09/10 11:43:18;;;;;;;35.70;28.47;;;23.50;90.40;;;;;;5073914;28;20047;-64
2021/09/10 11:45:46;;;;;;;31.60;25.90;;;23.50;90.10;;;;;;5075225;28;20493;-64
2021/09/10 11:48:14;;;;;;;30.52;25.13;;;23.40;89.50;;;;;;5078138;28;20071;-64
2021/09/10 11:50:52;;;;;;;28.92;24.48;;;23.30;88.90;;;;;;5087971;28;20047;-71
2021/09/10 11:53:27;;;;;;;33.58;27.85;;;23.30;89.20;;;;;;5101179;28;20039;-71
2021/09/10 11:55:56;;;;;;;30.80;27.38;;;23.20;89.10;;;;;;5105547;28;20054;-71
2021/09/10 11:58:45;;;;;;;30.65;27.25;;;23.20;89.50;;;;;;5099633;28;20307;-72
2021/09/10 12:01:15;;;;;;;31.55;28.00;;;23.20;89.70;;;;;;5115290;28;20134;-70
2021/09/10 12:03:53;;;;;;;30.27;26.13;;;23.20;89.70;;;;;;5116652;28;20070;-70
2021/09/10 12:06:20;;;;;;;29.08;26.08;;;23.30;89.70;;;;;;5104260;28;20147;-73
2021/09/10 12:09:25;;;;;;;30.83;25.27;;;23.40;89.70;;;;;;5106960;28;20051;-74
2021/09/10 12:12:02;;;;;;;25.33;22.25;;;23.60;89.40;;;;;;5080296;28;20355;-70
2021/09/10 12:14:28;;;;;;;29.08;24.85;;;23.70;88.80;;;;;;5109618;28;20109;-70
2021/09/10 12:17:27;;;;;;;26.45;23.27;;;23.70;87.80;;;;;;5091904;28;20051;-70
2021/09/10 12:20:02;;;;;;;25.83;23.23;;;23.70;87.40;;;;;;5068138;28;20109;-70
2021/09/10 12:22:49;;;;;;;25.48;22.02;;;23.80;87.60;;;;;;5086680;28;20131;-70
2021/09/10 12:25:27;;;;;;;27.15;23.73;;;23.90;87.60;;;;;;5105804;28;20482;-70
2021/09/10 12:28:08;;;;;;;28.20;25.30;;;24.00;87.30;;;;;;5091469;28;20039;-70
2021/09/10 12:30:37;;;;;;;27.05;24.35;;;24.00;86.30;;;;;;5121139;28;20067;-71
2021/09/10 12:33:04;;;;;;;30.65;26.08;;;24.00;86.00;;;;;;5109958;28;20044;-71